Flight Track Log - Related Links

Times and Time Zones

All times are in EDT time to prevent confusion due to time zone crossing. See the SKW5631 flight status page for this flight to view local times or setup timezone preferences in your user account.

Time Position Orientation Groundspeed Altitude Reporting Facility
EDT Latitude Longitude Course Direction KTS MPH feet Rate Location/Type
Sun 05:51:06 PM 39.4333 -119.7667 254° West 227 261 6,800  Level Northern Cal TRACON
Sun 05:52:06 PM 39.3500 -119.7667 180° South 284 327 8,900 2,450 Climbing Northern Cal TRACON
Sun 05:53:00 PM 39.4486 -120.0749 258° West  Level FlightAware Approximate
Sun 05:53:06 PM 39.2667 -119.7667 180° South 298 343 11,700  Level Northern Cal TRACON
Sun 05:54:00 PM 39.4236 -120.2117 254° West  Level FlightAware Approximate
Sun 05:54:17 PM 39.1961 -119.8103 206° Southwest 320 368 14,300  Level Oakland Center
Sun 05:55:00 PM 39.3943 -120.3471 254° West  Level FlightAware Approximate
Sun 05:55:19 PM 39.1894 -119.9147 265° West 298 343 16,600  Level Oakland Center
Sun 05:56:00 PM 39.3648 -120.4824 254° West  Level FlightAware Approximate
Sun 05:56:21 PM 39.1836 -120.0469 267° West 308 354 19,000  Level Oakland Center
Sun 05:57:22 PM 39.1761 -120.1608 265° West 315 362 21,000 1,756 Climbing Oakland Center
Sun 05:58:24 PM 39.1711 -120.2783 267° West 328 377 22,600 1,463 Climbing Oakland Center
Sun 05:59:25 PM 39.1642 -120.4042 266° West 349 402 24,000 1,415 Climbing Oakland Center
Sun 06:00:27 PM 39.1583 -120.5353 267° West 365 420 25,500 1,415 Climbing Oakland Center
Sun 06:01:28 PM 39.1322 -120.6656 256° West 381 438 26,900 1,220 Climbing Oakland Center
Sun 06:02:30 PM 39.1061 -120.7986 256° West 384 442 28,000 532 Climbing Oakland Center
Sun 06:03:32 PM 39.0778 -120.9358 255° West 396 456 28,000  Level Oakland Center
Sun 06:04:33 PM 39.0344 -121.1000 251° West 408 470 28,000  Level Oakland Center
Sun 06:05:35 PM 38.9675 -121.2214 235° Southwest 422 486 28,000  Level Oakland Center
Sun 06:06:36 PM 38.9033 -121.3425 236° Southwest 416 479 28,000  Level Oakland Center
Sun 06:07:38 PM 38.8397 -121.4628 236° Southwest 413 475 28,000  Level Oakland Center
Sun 06:08:40 PM 38.7767 -121.5817 236° Southwest 410 472 28,000  Level Oakland Center
Sun 06:09:41 PM 38.7131 -121.6997 235° Southwest 405 466 28,000  Level Oakland Center
Sun 06:10:43 PM 38.6369 -121.8428 236° Southwest 408 470 28,000  Level Oakland Center
Sun 06:11:44 PM 38.5817 -121.9467 236° Southwest 405 466 28,000  Level Oakland Center
Sun 06:12:46 PM 38.5169 -122.0644 235° Southwest 404 465 28,000 -146 Level Oakland Center
Sun 06:13:47 PM 38.4539 -122.1842 236° Southwest 407 468 27,700 -1,463 Descending Oakland Center
Sun 06:14:49 PM 38.3783 -122.3247 236° Southwest 401 461 25,000 -2,341 Descending Oakland Center
Sun 06:15:50 PM 38.3169 -122.4364 235° Southwest 387 445 22,900 -2,000 Descending Oakland Center
Sun 06:16:52 PM 38.2600 -122.5425 236° Southwest 367 422 20,900 -1,902 Descending Oakland Center
Sun 06:17:53 PM 38.2042 -122.6439 235° Southwest 355 409 19,000 -1,756 Descending Oakland Center
Sun 06:18:55 PM 38.1514 -122.7419 236° Southwest 341 392 17,300 -1,707 Descending Oakland Center
Sun 06:19:56 PM 38.0883 -122.8214 225° Southwest 336 387 15,500 -1,873 Descending Oakland Center
Sun 06:21:00 PM 38.0237 -122.8183 138° Southeast  Level FlightAware Approximate
Sun 06:21:32 PM 37.9500 -122.7333 138° Southeast 325 374 12,400  Level Northern Cal TRACON
Sun 06:21:59 PM 37.9244 -122.7008 135° Southeast 326 375 11,700 -955 Descending Oakland Center
Sun 06:23:00 PM 37.8594 -122.6331 141° Southeast 317 365 11,000 -387 Descending Oakland Center
Sun 06:23:32 PM 37.8167 -122.5833 137° Southeast 313 360 11,100 65 Climbing Northern Cal TRACON
Sun 06:24:32 PM 37.7500 -122.5167 142° Southeast 315 362 11,100 -50 Level Northern Cal TRACON
Sun 06:25:33 PM 37.6833 -122.4500 142° Southeast 258 297 11,000  Descending Northern Cal TRACON
Sun 06:26:33 PM 37.6333 -122.4000 142° Southeast 226 260 11,100  Climbing Northern Cal TRACON
Sun 06:27:06 PM 37.6153 -122.3733 131° Southeast 229 264 11,000 -383 Descending Oakland Center
Sun 06:28:07 PM 37.5583 -122.3386 154° Southeast 228 262 10,500 -927 Descending Oakland Center
Sun 06:29:09 PM 37.5019 -122.3019 153° Southeast 229 264 9,100 -1,268 Descending Oakland Center
Sun 06:30:10 PM 37.4456 -122.2664 153° Southeast 227 261 7,900 -1,024 Descending Oakland Center
Sun 06:31:12 PM 37.4039 -122.2161 136° Southeast 226 260 7,000 -585 Descending Oakland Center
Sun 06:32:13 PM 37.3811 -122.1519 114° Southeast 206 237 6,700 -787 Descending Oakland Center
Sun 06:33:14 PM 37.4311 -122.1347 15° North 204 235 5,400 -1,268 Descending Oakland Center
Sun 06:34:16 PM 37.4972 -122.1517 349° North 210 242 4,100 -1,024 Descending Oakland Center
Sun 06:35:17 PM 37.5356 -122.1917 320° Northwest 190 219 3,300 -787 Descending Oakland Center

Login

Don't have an account? Register now (free) for customized features, flight alerts, and more!